createdAt,value
2022-12-27T00:02:21.291Z,88.63
2022-12-27T00:04:48.700Z,86.78
2022-12-27T00:07:16.036Z,85.18
2022-12-27T00:09:43.451Z,83.95
2022-12-27T00:12:10.781Z,89.00
2022-12-27T00:14:38.257Z,88.28
2022-12-27T00:17:05.616Z,85.80
2022-12-27T00:19:33.005Z,96.07
2022-12-27T00:22:00.663Z,94.93
2022-12-27T00:24:29.247Z,90.97
2022-12-27T00:26:56.516Z,89.03
2022-12-27T00:29:24.837Z,87.53
2022-12-27T00:31:52.317Z,84.45
2022-12-27T00:34:19.758Z,91.88
2022-12-27T00:36:47.058Z,85.55
2022-12-27T00:39:14.542Z,92.18
2022-12-27T00:41:42.018Z,88.07
2022-12-27T00:44:09.311Z,94.82
2022-12-27T00:46:36.660Z,83.18
2022-12-27T00:49:04.068Z,92.70
2022-12-27T00:51:31.431Z,90.00
2022-12-27T00:53:58.782Z,87.20
2022-12-27T00:56:31.229Z,94.05
2022-12-27T00:59:02.584Z,82.30
2022-12-27T01:01:33.950Z,92.43
2022-12-27T01:04:02.321Z,91.88
2022-12-27T01:06:32.199Z,89.80
2022-12-27T01:09:00.958Z,92.85
2022-12-27T01:11:28.923Z,92.80
2022-12-27T01:14:04.706Z,88.13
2022-12-27T01:16:34.236Z,94.32
2022-12-27T01:19:01.885Z,96.57
2022-12-27T01:21:30.937Z,87.93
2022-12-27T01:23:59.017Z,96.95
2022-12-27T01:26:26.680Z,94.05
2022-12-27T01:28:54.755Z,95.63
2022-12-27T01:31:25.549Z,91.55
2022-12-27T01:33:58.186Z,97.40
2022-12-27T01:36:27.098Z,91.68
2022-12-27T01:38:54.559Z,92.10
2022-12-27T01:41:43.976Z,90.43
2022-12-27T01:44:51.500Z,88.97
2022-12-27T01:47:31.258Z,92.40
2022-12-27T01:50:26.936Z,89.88
2022-12-27T01:52:57.958Z,91.78
2022-12-27T01:55:47.783Z,90.90
2022-12-27T01:58:28.869Z,87.78
2022-12-27T02:00:57.233Z,88.32
2022-12-27T02:03:33.058Z,86.78
2022-12-27T02:06:03.115Z,76.60
2022-12-27T02:08:40.113Z,80.68
2022-12-27T02:11:08.984Z,84.10
2022-12-27T02:13:40.173Z,82.25
2022-12-27T02:16:17.309Z,91.38
2022-12-27T02:18:46.445Z,82.05
2022-12-27T02:21:25.979Z,75.18
2022-12-27T02:24:30.831Z,84.45
2022-12-27T02:27:20.178Z,81.93
2022-12-27T02:30:08.819Z,80.30
2022-12-27T02:32:51.554Z,85.25
2022-12-27T02:35:26.449Z,81.30
2022-12-27T02:38:26.156Z,76.85
2022-12-27T02:41:14.721Z,84.95
2022-12-27T02:44:00.850Z,84.20
2022-12-27T02:46:48.943Z,84.88
2022-12-27T02:49:53.724Z,83.63
2022-12-27T02:52:51.915Z,79.65
2022-12-27T02:55:38.080Z,84.35
2022-12-27T02:58:18.177Z,79.60
2022-12-27T03:01:20.596Z,80.97
2022-12-27T03:06:42.171Z,82.68
2022-12-27T03:09:49.478Z,83.55
2022-12-27T03:13:14.075Z,81.25
2022-12-27T03:16:00.456Z,81.18
2022-12-27T03:18:27.862Z,80.00
2022-12-27T03:21:16.625Z,80.53
2022-12-27T03:24:09.639Z,81.35
2022-12-27T03:26:40.075Z,77.13
2022-12-27T03:29:28.112Z,80.50
2022-12-27T03:32:17.522Z,77.15
2022-12-27T03:34:53.791Z,75.93
2022-12-27T03:37:44.210Z,78.28
2022-12-27T03:40:17.361Z,77.70
2022-12-27T03:43:09.608Z,75.72
2022-12-27T03:46:16.441Z,85.10
2022-12-27T03:49:18.135Z,80.47
2022-12-27T03:51:50.853Z,77.97
2022-12-27T03:54:32.086Z,79.07
2022-12-27T03:57:05.351Z,72.47
2022-12-27T03:59:32.839Z,76.68
2022-12-27T04:02:01.275Z,81.90
2022-12-27T04:04:28.660Z,71.35
2022-12-27T04:06:56.461Z,79.88
2022-12-27T04:09:43.047Z,76.45
2022-12-27T04:12:29.753Z,77.88
2022-12-27T04:15:15.544Z,74.10
2022-12-27T04:18:02.417Z,78.65
2022-12-27T04:20:49.764Z,80.53
2022-12-27T04:23:36.267Z,78.10
2022-12-27T04:26:22.667Z,84.90
2022-12-27T04:29:08.790Z,77.97
2022-12-27T04:31:54.698Z,75.40
2022-12-27T04:34:41.452Z,77.18
2022-12-27T04:37:18.669Z,77.72
2022-12-27T04:40:09.912Z,76.53
2022-12-27T04:42:55.936Z,73.43
2022-12-27T04:45:42.642Z,75.22
2022-12-27T04:48:33.957Z,74.15
2022-12-27T04:51:37.392Z,77.50
2022-12-27T04:54:40.649Z,77.63
2022-12-27T04:57:07.988Z,79.93
2022-12-27T04:59:54.488Z,83.97
2022-12-27T05:02:22.517Z,84.50
2022-12-27T05:04:50.199Z,80.68
2022-12-27T05:07:36.060Z,83.20
2022-12-27T05:10:23.880Z,78.03
2022-12-27T05:13:09.897Z,78.05
2022-12-27T05:15:37.427Z,75.07
2022-12-27T05:18:05.300Z,86.35
2022-12-27T05:20:34.917Z,81.72
2022-12-27T05:23:20.836Z,81.95
2022-12-27T05:25:48.239Z,82.40
2022-12-27T05:28:15.723Z,77.25
2022-12-27T05:30:44.021Z,76.07
2022-12-27T05:33:12.495Z,75.97
2022-12-27T05:35:40.394Z,77.63
2022-12-27T05:38:08.203Z,73.95
2022-12-27T05:40:35.671Z,72.15
2022-12-27T05:43:04.006Z,67.68
2022-12-27T05:45:32.879Z,78.95
2022-12-27T05:48:00.349Z,72.05
2022-12-27T05:50:27.799Z,79.30
2022-12-27T05:53:11.102Z,67.43
2022-12-27T05:55:39.056Z,68.80
2022-12-27T05:58:07.274Z,72.72
2022-12-27T06:00:34.691Z,75.00
2022-12-27T06:03:03.525Z,66.85
2022-12-27T06:05:30.994Z,72.55
2022-12-27T06:07:58.755Z,68.18
2022-12-27T06:10:26.071Z,62.00
2022-12-27T06:12:53.397Z,63.30
2022-12-27T06:15:20.763Z,66.63
2022-12-27T06:17:48.155Z,75.88
2022-12-27T06:20:15.558Z,68.68
2022-12-27T06:22:43.416Z,74.63
2022-12-27T06:25:14.306Z,69.15
2022-12-27T06:27:42.053Z,64.90
2022-12-27T06:30:12.178Z,73.85
2022-12-27T06:32:39.632Z,72.15
2022-12-27T06:35:07.978Z,72.32
2022-12-27T06:37:35.367Z,66.50
2022-12-27T06:40:02.851Z,74.78
2022-12-27T06:42:31.151Z,68.57
2022-12-27T06:44:58.559Z,76.13
2022-12-27T06:47:26.154Z,71.18
2022-12-27T06:49:53.589Z,75.80
2022-12-27T06:52:23.162Z,70.00
2022-12-27T06:54:50.555Z,69.95
2022-12-27T06:57:17.998Z,69.28
2022-12-27T06:59:48.171Z,73.80
2022-12-27T07:02:20.180Z,68.65
2022-12-27T07:04:47.591Z,66.72
2022-12-27T07:07:16.055Z,69.20
2022-12-27T07:09:43.579Z,70.05
2022-12-27T07:12:11.019Z,74.78
2022-12-27T07:14:38.506Z,74.53
2022-12-27T07:17:05.897Z,72.65
2022-12-27T07:19:33.355Z,74.45
2022-12-27T07:22:00.746Z,76.28
2022-12-27T07:24:28.103Z,74.57
2022-12-27T07:26:55.789Z,77.70
2022-12-27T07:29:23.308Z,69.72
2022-12-27T07:31:50.789Z,68.72
2022-12-27T07:34:18.315Z,74.82
2022-12-27T07:36:45.620Z,78.47
2022-12-27T07:39:12.940Z,71.68
2022-12-27T07:41:40.332Z,79.13
2022-12-27T07:44:07.740Z,74.30
2022-12-27T07:46:35.519Z,72.05
2022-12-27T07:49:03.096Z,78.53
2022-12-27T07:51:30.487Z,72.28
2022-12-27T07:53:57.840Z,74.30
2022-12-27T07:56:27.532Z,78.28
2022-12-27T07:58:57.370Z,72.15
2022-12-27T08:01:27.376Z,75.35
2022-12-27T08:03:55.437Z,76.18
2022-12-27T08:06:33.295Z,73.90
2022-12-27T08:09:05.347Z,78.97
2022-12-27T08:11:32.703Z,80.03
2022-12-27T08:13:59.987Z,76.68
2022-12-27T08:16:27.633Z,82.28
2022-12-27T08:18:55.940Z,72.13
2022-12-27T08:21:23.844Z,73.30
2022-12-27T08:23:51.399Z,72.35
2022-12-27T08:26:18.750Z,64.90
2022-12-27T08:28:46.111Z,67.22
2022-12-27T08:31:15.523Z,65.63
2022-12-27T08:33:42.839Z,62.35
2022-12-27T08:36:53.003Z,62.97
2022-12-27T08:39:00.475Z,59.97
2022-12-27T08:41:27.988Z,62.72
2022-12-27T08:43:55.586Z,63.78
2022-12-27T08:46:25.986Z,59.50
2022-12-27T08:48:53.445Z,70.88
2022-12-27T08:51:32.672Z,64.97
2022-12-27T08:54:06.156Z,67.28
2022-12-27T08:56:33.531Z,76.88
2022-12-27T08:59:01.167Z,72.97
2022-12-27T09:01:28.677Z,62.55
2022-12-27T09:03:56.167Z,67.97
2022-12-27T09:06:24.912Z,67.70
2022-12-27T09:08:53.776Z,69.45
2022-12-27T09:11:27.800Z,65.00
2022-12-27T09:13:55.893Z,67.18
2022-12-27T09:16:27.578Z,65.43
2022-12-27T09:18:57.236Z,66.57
2022-12-27T09:21:27.267Z,67.18
2022-12-27T09:23:54.977Z,62.58
2022-12-27T09:26:24.581Z,61.38
2022-12-27T09:28:53.124Z,67.07
2022-12-27T09:31:21.446Z,67.28
2022-12-27T09:33:49.411Z,73.05
2022-12-27T09:36:19.470Z,68.28
2022-12-27T09:38:47.749Z,66.93
2022-12-27T09:44:43.713Z,72.75
2022-12-27T09:47:17.441Z,66.43
2022-12-27T09:49:50.963Z,68.57
2022-12-27T09:52:40.614Z,74.68
2022-12-27T09:55:34.409Z,77.72
2022-12-27T09:58:25.484Z,74.97
2022-12-27T10:00:53.150Z,70.30
2022-12-27T10:03:35.035Z,68.38
2022-12-27T10:06:20.553Z,72.22
2022-12-27T10:08:53.747Z,70.63
2022-12-27T10:11:36.163Z,69.90
2022-12-27T10:14:29.853Z,69.95
2022-12-27T10:17:03.554Z,70.75
2022-12-27T10:19:40.024Z,78.05
2022-12-27T10:22:41.130Z,77.25
2022-12-27T10:25:14.572Z,77.55
2022-12-27T10:27:42.899Z,78.68
2022-12-27T10:30:22.702Z,71.93
2022-12-27T10:32:50.742Z,72.63
2022-12-27T10:35:20.066Z,67.60
2022-12-27T10:37:49.222Z,75.80
2022-12-27T10:40:22.708Z,71.18
2022-12-27T10:43:02.703Z,75.18
2022-12-27T10:45:39.298Z,71.32
2022-12-27T10:48:16.442Z,72.40
2022-12-27T10:50:48.604Z,64.50
2022-12-27T10:53:36.089Z,64.13
2022-12-27T10:56:12.272Z,67.47
2022-12-27T10:58:58.150Z,65.40
2022-12-27T11:01:29.402Z,69.25
2022-12-27T11:04:20.662Z,70.47
2022-12-27T11:07:13.552Z,66.60
2022-12-27T11:09:50.776Z,68.75
2022-12-27T11:12:25.984Z,64.65
2022-12-27T11:15:04.705Z,65.93
2022-12-27T11:17:38.271Z,63.95
2022-12-27T11:20:12.300Z,64.45
2022-12-27T11:22:52.716Z,61.10
2022-12-27T11:25:21.157Z,66.60
2022-12-27T11:27:56.025Z,66.45
2022-12-27T11:30:35.077Z,65.70
2022-12-27T11:33:06.285Z,71.43
2022-12-27T11:35:45.009Z,69.63
2022-12-27T11:38:30.295Z,65.82
2022-12-27T11:41:09.806Z,66.00
2022-12-27T11:43:44.576Z,61.35
2022-12-27T11:46:25.605Z,70.55
2022-12-27T11:49:00.133Z,65.88
2022-12-27T11:51:49.382Z,67.95
2022-12-27T11:54:31.989Z,68.85
2022-12-27T11:57:34.800Z,66.00
2022-12-27T12:00:24.057Z,61.17
2022-12-27T12:03:16.390Z,67.72
2022-12-27T12:08:45.013Z,66.30
2022-12-27T12:11:29.767Z,65.18
2022-12-27T12:14:22.011Z,61.47
2022-12-27T12:16:49.274Z,63.42
2022-12-27T12:19:50.553Z,60.67
2022-12-27T12:22:50.618Z,62.50
2022-12-27T12:25:41.991Z,62.67
2022-12-27T12:31:36.404Z,60.50
2022-12-27T12:34:22.791Z,63.95
2022-12-27T12:36:57.752Z,66.30
2022-12-27T12:39:34.447Z,68.53
2022-12-27T12:42:13.974Z,63.30
2022-12-27T12:45:06.207Z,64.60
2022-12-27T12:50:40.923Z,63.28
2022-12-27T12:53:29.399Z,67.75
2022-12-27T12:56:29.949Z,62.90
2022-12-27T12:59:00.517Z,75.00
2022-12-27T13:01:41.928Z,71.28
2022-12-27T13:04:28.422Z,68.15
2022-12-27T13:07:04.638Z,68.03
2022-12-27T13:09:44.469Z,63.22
2022-12-27T13:12:39.688Z,70.55
2022-12-27T13:15:07.095Z,74.93
2022-12-27T13:17:52.712Z,67.88
2022-12-27T13:20:54.080Z,70.85
2022-12-27T13:23:52.317Z,69.80
2022-12-27T13:26:27.881Z,66.53
2022-12-27T13:29:17.239Z,74.25
2022-12-27T13:32:13.635Z,73.65
2022-12-27T13:34:53.305Z,68.40
2022-12-27T13:37:52.554Z,69.60
2022-12-27T13:40:29.228Z,77.22
2022-12-27T13:43:28.865Z,76.93
2022-12-27T13:46:08.404Z,65.05
2022-12-27T13:48:35.747Z,71.00
2022-12-27T13:51:45.954Z,72.03
2022-12-27T13:54:35.097Z,76.22
2022-12-27T13:57:11.577Z,72.85
2022-12-27T14:00:19.119Z,72.72
2022-12-27T14:02:46.475Z,72.45
2022-12-27T14:05:44.559Z,74.65
2022-12-27T14:08:22.419Z,72.60
2022-12-27T14:10:58.583Z,73.25
2022-12-27T14:13:43.191Z,74.00
2022-12-27T14:19:01.052Z,70.30
2022-12-27T14:21:49.775Z,81.25
2022-12-27T14:24:40.290Z,74.97
2022-12-27T14:27:07.479Z,67.28
2022-12-27T14:29:56.382Z,71.40
2022-12-27T14:32:38.630Z,69.45
2022-12-27T14:38:07.441Z,73.80
2022-12-27T14:40:47.423Z,70.68
2022-12-27T14:43:44.657Z,74.38
2022-12-27T14:46:40.576Z,72.18
2022-12-27T14:49:46.636Z,71.57
2022-12-27T14:52:33.745Z,72.07
2022-12-27T14:55:44.938Z,74.05
2022-12-27T14:58:39.895Z,72.20
2022-12-27T15:01:21.264Z,69.88
2022-12-27T15:04:03.876Z,76.47
2022-12-27T15:07:06.620Z,70.72
2022-12-27T15:09:50.468Z,70.50
2022-12-27T15:12:39.950Z,70.90
2022-12-27T15:15:38.005Z,70.20
2022-12-27T15:18:22.008Z,71.93
2022-12-27T15:20:54.927Z,65.10
2022-12-27T15:23:34.391Z,71.57
2022-12-27T15:26:20.216Z,72.13
2022-12-27T15:29:04.774Z,72.03
2022-12-27T15:32:05.169Z,66.82
2022-12-27T15:34:54.141Z,67.47
2022-12-27T15:38:01.265Z,69.72
2022-12-27T15:40:34.708Z,72.60
2022-12-27T15:43:11.904Z,77.15
2022-12-27T15:45:45.332Z,70.15
2022-12-27T15:48:24.770Z,69.95
2022-12-27T15:51:10.646Z,75.95
2022-12-27T15:53:50.224Z,71.70
2022-12-27T15:56:34.958Z,71.20
2022-12-27T15:59:39.818Z,73.32
2022-12-27T16:02:28.483Z,78.35
2022-12-27T16:05:20.296Z,71.15
2022-12-27T16:07:59.823Z,71.75
2022-12-27T16:10:30.054Z,76.35
2022-12-27T16:13:19.580Z,76.70
2022-12-27T16:15:48.027Z,77.25
2022-12-27T16:18:24.078Z,78.93
2022-12-27T16:21:00.206Z,73.80
2022-12-27T16:23:36.557Z,85.00
2022-12-27T16:26:09.515Z,76.15
2022-12-27T16:28:37.990Z,71.90
2022-12-27T16:31:12.410Z,73.90
2022-12-27T16:33:41.961Z,78.35
2022-12-27T16:36:12.417Z,79.63
2022-12-27T16:38:45.280Z,79.90
2022-12-27T16:41:14.058Z,72.85
2022-12-27T16:44:23.199Z,82.40
2022-12-27T16:46:56.978Z,77.53
2022-12-27T16:49:30.218Z,76.97
2022-12-27T16:52:06.821Z,80.07
2022-12-27T16:55:11.866Z,83.10
2022-12-27T16:57:48.548Z,78.18
2022-12-27T17:00:40.338Z,81.85
2022-12-27T17:03:35.791Z,76.10
2022-12-27T17:06:38.299Z,78.28
2022-12-27T17:09:08.608Z,80.13
2022-12-27T17:11:48.057Z,82.10
2022-12-27T17:14:29.944Z,80.35
2022-12-27T17:17:13.555Z,76.38
2022-12-27T17:19:55.953Z,82.22
2022-12-27T17:22:32.122Z,86.65
2022-12-27T17:25:02.921Z,83.85
2022-12-27T17:27:42.187Z,82.15
2022-12-27T17:30:23.861Z,73.47
2022-12-27T17:33:10.837Z,78.43
2022-12-27T17:35:40.755Z,80.10
2022-12-27T17:38:20.187Z,81.45
2022-12-27T17:40:59.271Z,78.72
2022-12-27T17:44:06.752Z,76.40
2022-12-27T17:46:40.107Z,78.43
2022-12-27T17:49:09.918Z,78.43
2022-12-27T17:51:44.889Z,77.75
2022-12-27T17:54:44.081Z,80.82
2022-12-27T17:57:32.461Z,83.13
2022-12-27T18:00:00.075Z,84.35
2022-12-27T18:02:32.245Z,84.15
2022-12-27T18:05:03.514Z,84.35
2022-12-27T18:07:32.733Z,82.95
2022-12-27T18:10:04.165Z,81.82
2022-12-27T18:12:37.578Z,83.05
2022-12-27T18:15:16.616Z,80.03
2022-12-27T18:17:47.260Z,76.43
2022-12-27T18:20:20.520Z,82.95
2022-12-27T18:22:47.884Z,79.03
2022-12-27T18:25:24.515Z,87.03
2022-12-27T18:28:32.179Z,79.82
2022-12-27T18:31:13.059Z,76.85
2022-12-27T18:34:04.118Z,83.68
2022-12-27T18:36:39.654Z,81.28
2022-12-27T18:39:33.874Z,84.97
2022-12-27T18:42:05.852Z,81.25
2022-12-27T18:47:19.004Z,80.82
2022-12-27T18:49:51.711Z,83.88
2022-12-27T18:52:24.718Z,83.43
2022-12-27T18:54:52.773Z,147.95
2022-12-27T18:57:33.440Z,106.40
2022-12-27T19:00:26.545Z,102.72
2022-12-27T19:03:11.301Z,86.82
2022-12-27T19:05:38.966Z,81.22
2022-12-27T19:08:15.458Z,86.93
2022-12-27T19:10:50.730Z,90.15
2022-12-27T19:13:47.459Z,80.88
2022-12-27T19:16:30.383Z,81.97
2022-12-27T19:19:03.091Z,86.22
2022-12-27T19:21:32.970Z,90.90
2022-12-27T19:24:39.217Z,83.47
2022-12-27T19:27:23.328Z,79.18
2022-12-27T19:29:52.353Z,81.95
2022-12-27T19:32:26.266Z,82.53
2022-12-27T19:34:57.613Z,81.03
2022-12-27T19:37:27.170Z,81.47
2022-12-27T19:39:55.270Z,77.07
2022-12-27T19:42:29.424Z,79.72
2022-12-27T19:44:56.844Z,79.03
2022-12-27T19:47:24.196Z,81.47
2022-12-27T19:49:52.783Z,74.35
2022-12-27T19:52:26.655Z,82.70
2022-12-27T19:55:01.594Z,76.88
2022-12-27T19:57:28.848Z,81.65
2022-12-27T19:59:56.406Z,74.38
2022-12-27T20:02:23.867Z,73.90
2022-12-27T20:04:51.426Z,78.38
2022-12-27T20:07:22.651Z,77.68
2022-12-27T20:09:50.674Z,80.78
2022-12-27T20:12:18.014Z,79.65
2022-12-27T20:14:45.533Z,79.78
2022-12-27T20:17:12.873Z,80.20
2022-12-27T20:19:40.216Z,76.85
2022-12-27T20:22:07.601Z,76.70
2022-12-27T20:24:36.990Z,79.05
2022-12-27T20:27:05.222Z,81.40
2022-12-27T20:29:32.759Z,83.20
2022-12-27T20:32:00.201Z,77.03
2022-12-27T20:34:27.684Z,82.22
2022-12-27T20:36:55.616Z,73.93
2022-12-27T20:39:23.062Z,72.45
2022-12-27T20:41:50.459Z,81.40
2022-12-27T20:44:19.294Z,88.80
2022-12-27T20:46:47.641Z,90.22
2022-12-27T20:49:15.170Z,84.38
2022-12-27T20:51:42.609Z,80.70
2022-12-27T20:54:13.010Z,78.43
2022-12-27T20:56:40.605Z,80.18
2022-12-27T20:59:08.085Z,85.63
2022-12-27T21:01:35.715Z,91.35
2022-12-27T21:04:04.319Z,85.93
2022-12-27T21:06:31.703Z,83.72
2022-12-27T21:08:59.063Z,88.60
2022-12-27T21:11:32.017Z,85.47
2022-12-27T21:14:01.170Z,79.30
2022-12-27T21:16:31.305Z,77.35
2022-12-27T21:19:02.803Z,78.30
2022-12-27T21:21:32.028Z,88.93
2022-12-27T21:24:00.150Z,83.03
2022-12-27T21:26:30.385Z,86.57
2022-12-27T21:28:59.356Z,81.32
2022-12-27T21:31:27.238Z,81.75
2022-12-27T21:33:54.881Z,86.13
2022-12-27T21:36:25.174Z,84.63
2022-12-27T21:38:53.903Z,84.65
2022-12-27T21:41:26.489Z,80.28
2022-12-27T21:43:54.161Z,83.43
2022-12-27T21:46:24.248Z,77.13
2022-12-27T21:48:58.450Z,80.07
2022-12-27T21:51:27.178Z,79.10
2022-12-27T21:53:55.377Z,77.70
2022-12-27T21:56:23.640Z,74.70
2022-12-27T21:58:51.685Z,81.03
2022-12-27T22:01:24.848Z,75.82
2022-12-27T22:03:54.045Z,80.55
2022-12-27T22:06:26.182Z,71.07
2022-12-27T22:08:58.850Z,71.25
2022-12-27T22:11:27.510Z,74.78
2022-12-27T22:13:55.069Z,69.03
2022-12-27T22:16:25.085Z,68.90
2022-12-27T22:18:52.786Z,70.18
2022-12-27T22:21:22.376Z,67.72
2022-12-27T22:23:52.303Z,68.25
2022-12-27T22:26:31.504Z,64.95
2022-12-27T22:28:59.081Z,65.70
2022-12-27T22:31:35.260Z,59.00
2022-12-27T22:34:03.908Z,61.90
2022-12-27T22:36:31.551Z,63.47
2022-12-27T22:38:59.813Z,62.83
2022-12-27T22:41:29.832Z,68.80
2022-12-27T22:44:11.814Z,69.00
2022-12-27T22:49:27.586Z,69.15
2022-12-27T22:51:54.963Z,60.10
2022-12-27T22:55:04.064Z,61.58
2022-12-27T22:57:09.651Z,61.35
2022-12-27T22:59:37.028Z,62.00
2022-12-27T23:02:04.670Z,62.05
2022-12-27T23:04:32.215Z,56.03
2022-12-27T23:07:01.766Z,54.55
2022-12-27T23:09:29.315Z,50.45
2022-12-27T23:11:56.719Z,53.90
2022-12-27T23:14:24.135Z,51.00
2022-12-27T23:16:51.521Z,43.80
2022-12-27T23:19:21.332Z,44.05
2022-12-27T23:21:49.131Z,46.95
2022-12-27T23:24:16.730Z,48.70
2022-12-27T23:26:44.080Z,43.80
2022-12-27T23:29:13.915Z,39.97
2022-12-27T23:31:55.488Z,41.90
2022-12-27T23:36:59.897Z,41.60
2022-12-27T23:39:27.994Z,41.38
2022-12-27T23:41:55.683Z,40.35
2022-12-27T23:44:32.813Z,38.40
2022-12-27T23:47:01.054Z,41.60
2022-12-27T23:49:28.391Z,42.75
2022-12-27T23:51:55.852Z,42.40
2022-12-27T23:54:23.260Z,42.30
2022-12-27T23:56:50.636Z,43.25
2022-12-27T23:59:18.051Z,43.03
